createdAt,value
2023-05-24T00:02:14.020Z,4.37
2023-05-24T00:04:42.138Z,4.57
2023-05-24T00:07:10.174Z,5.93
2023-05-24T00:09:38.934Z,4.80
2023-05-24T00:12:10.303Z,4.73
2023-05-24T00:14:37.289Z,5.10
2023-05-24T00:17:04.856Z,4.43
2023-05-24T00:19:32.257Z,5.00
2023-05-24T00:21:59.927Z,5.10
2023-05-24T00:24:27.016Z,4.87
2023-05-24T00:26:54.045Z,4.97
2023-05-24T00:29:21.315Z,5.10
2023-05-24T00:31:48.494Z,5.50
2023-05-24T00:34:15.648Z,4.67
2023-05-24T00:36:45.258Z,5.10
2023-05-24T00:39:12.185Z,5.10
2023-05-24T00:41:39.875Z,5.90
2023-05-24T00:44:07.222Z,5.33
2023-05-24T00:46:35.490Z,5.70
2023-05-24T00:49:03.974Z,6.17
2023-05-24T00:51:33.304Z,5.57
2023-05-24T00:54:00.791Z,5.83
2023-05-24T00:56:31.568Z,5.30
2023-05-24T00:58:58.987Z,5.87
2023-05-24T01:01:26.138Z,6.13
2023-05-24T01:03:54.761Z,5.30
2023-05-24T01:06:22.289Z,6.00
2023-05-24T01:09:27.678Z,5.60
2023-05-24T01:12:12.908Z,5.90
2023-05-24T01:14:50.533Z,5.83
2023-05-24T01:17:31.486Z,6.00
2023-05-24T01:20:10.462Z,6.13
2023-05-24T01:22:47.889Z,6.30
2023-05-24T01:25:51.790Z,6.17
2023-05-24T01:28:19.585Z,7.23
2023-05-24T01:30:47.399Z,5.63
2023-05-24T01:33:14.979Z,6.53
2023-05-24T01:35:43.067Z,6.20
2023-05-24T01:38:13.278Z,6.60
2023-05-24T01:40:41.409Z,6.07
2023-05-24T01:43:41.008Z,6.37
2023-05-24T01:46:33.479Z,6.60
2023-05-24T01:49:21.107Z,6.10
2023-05-24T01:52:01.901Z,6.17
2023-05-24T01:54:32.691Z,5.83
2023-05-24T01:57:00.388Z,6.00
2023-05-24T01:59:31.178Z,6.97
2023-05-24T02:02:00.868Z,6.30
2023-05-24T02:04:30.593Z,5.90
2023-05-24T02:06:57.417Z,6.33
2023-05-24T02:09:24.255Z,7.37
2023-05-24T02:11:51.140Z,6.10
2023-05-24T02:14:20.139Z,5.83
2023-05-24T02:16:47.718Z,5.77
2023-05-24T02:19:14.826Z,6.20
2023-05-24T02:21:41.926Z,6.50
2023-05-24T02:24:16.200Z,7.77
2023-05-24T02:26:43.167Z,6.20
2023-05-24T02:29:11.699Z,6.93
2023-05-24T02:31:39.526Z,6.50
2023-05-24T02:34:12.476Z,6.90
2023-05-24T02:36:40.592Z,6.30
2023-05-24T02:39:08.425Z,5.90
2023-05-24T02:41:38.915Z,5.97
2023-05-24T02:44:08.607Z,6.40
2023-05-24T02:46:40.242Z,6.13
2023-05-24T02:49:07.912Z,6.80
2023-05-24T02:51:37.864Z,7.73
2023-05-24T02:54:05.404Z,6.13
2023-05-24T02:56:32.538Z,6.57
2023-05-24T02:58:59.274Z,6.47
2023-05-24T03:01:27.562Z,6.30
2023-05-24T03:03:58.640Z,6.57
2023-05-24T03:06:26.653Z,6.40
2023-05-24T03:08:53.842Z,6.17
2023-05-24T03:11:22.929Z,7.47
2023-05-24T03:13:50.542Z,6.37
2023-05-24T03:16:18.738Z,7.57
2023-05-24T03:18:50.861Z,5.37
2023-05-24T03:21:21.156Z,6.00
2023-05-24T03:23:49.392Z,5.93
2023-05-24T03:26:17.169Z,5.90
2023-05-24T03:28:46.148Z,6.90
2023-05-24T03:31:44.886Z,6.50
2023-05-24T03:34:20.596Z,7.10
2023-05-24T03:37:18.193Z,6.43
2023-05-24T03:39:49.487Z,6.40
2023-05-24T03:43:09.668Z,6.53
2023-05-24T03:45:49.362Z,6.20
2023-05-24T03:48:30.051Z,7.30
2023-05-24T03:51:12.033Z,6.03
2023-05-24T03:53:44.802Z,7.07
2023-05-24T03:56:19.034Z,6.80
2023-05-24T03:59:10.343Z,7.70
2023-05-24T04:01:41.891Z,7.13
2023-05-24T04:04:10.695Z,6.50
2023-05-24T04:06:54.847Z,7.27
2023-05-24T04:09:37.396Z,6.60
2023-05-24T04:12:28.438Z,6.37
2023-05-24T04:15:24.218Z,6.83
2023-05-24T04:17:57.484Z,6.93
2023-05-24T04:26:02.722Z,6.70
2023-05-24T04:28:29.970Z,6.30
2023-05-24T04:30:58.360Z,6.40
2023-05-24T04:33:25.512Z,5.77
2023-05-24T04:35:53.671Z,6.67
2023-05-24T04:38:22.139Z,6.57
2023-05-24T04:40:52.706Z,6.73
2023-05-24T04:43:24.703Z,6.03
2023-05-24T04:45:53.222Z,5.90
2023-05-24T04:48:34.348Z,5.80
2023-05-24T04:53:47.366Z,5.50
2023-05-24T04:56:15.130Z,5.67
2023-05-24T04:58:46.919Z,5.60
2023-05-24T05:01:14.751Z,6.20
2023-05-24T05:03:42.812Z,5.10
2023-05-24T05:06:10.673Z,5.60
2023-05-24T05:08:38.574Z,6.10
2023-05-24T05:11:05.838Z,5.80
2023-05-24T05:13:33.184Z,6.17
2023-05-24T05:16:00.316Z,6.00
2023-05-24T05:18:27.129Z,5.97
2023-05-24T05:20:54.907Z,5.80
2023-05-24T05:23:21.933Z,4.60
2023-05-24T05:25:49.337Z,6.53
2023-05-24T05:28:16.702Z,5.10
2023-05-24T05:30:43.856Z,4.90
2023-05-24T05:33:10.896Z,5.00
2023-05-24T05:35:40.177Z,4.67
2023-05-24T05:38:07.813Z,5.93
2023-05-24T05:40:35.733Z,5.00
2023-05-24T05:43:03.259Z,5.20
2023-05-24T05:45:30.609Z,5.00
2023-05-24T05:47:57.624Z,5.47
2023-05-24T05:50:24.610Z,6.10
2023-05-24T05:52:51.376Z,5.50
2023-05-24T05:55:18.200Z,5.40
2023-05-24T05:57:45.087Z,5.13
2023-05-24T06:00:12.651Z,5.73
2023-05-24T06:02:39.603Z,5.60
2023-05-24T06:05:07.151Z,5.30
2023-05-24T06:07:36.494Z,5.00
2023-05-24T06:10:04.968Z,5.50
2023-05-24T06:12:32.316Z,4.70
2023-05-24T06:15:00.326Z,4.90
2023-05-24T06:17:28.474Z,4.80
2023-05-24T06:19:56.525Z,5.40
2023-05-24T06:22:24.185Z,5.07
2023-05-24T06:24:53.150Z,6.80
2023-05-24T06:27:20.333Z,5.87
2023-05-24T06:29:48.705Z,5.63
2023-05-24T06:32:15.609Z,5.30
2023-05-24T06:34:43.359Z,5.20
2023-05-24T06:37:10.510Z,5.73
2023-05-24T06:39:38.424Z,5.37
2023-05-24T06:42:06.382Z,6.10
2023-05-24T06:44:37.330Z,5.30
2023-05-24T06:47:06.426Z,5.80
2023-05-24T06:49:33.754Z,4.67
2023-05-24T06:52:01.588Z,5.23
2023-05-24T06:54:29.771Z,5.27
2023-05-24T06:56:58.033Z,5.87
2023-05-24T06:59:25.999Z,5.67
2023-05-24T07:01:59.519Z,5.23
2023-05-24T07:04:30.678Z,5.70
2023-05-24T07:06:58.653Z,6.10
2023-05-24T07:09:26.256Z,5.30
2023-05-24T07:11:54.297Z,5.80
2023-05-24T07:14:23.606Z,6.00
2023-05-24T07:16:50.687Z,6.17
2023-05-24T07:19:17.885Z,5.87
2023-05-24T07:21:44.882Z,6.63
2023-05-24T07:24:14.769Z,5.20
2023-05-24T07:26:43.552Z,6.10
2023-05-24T07:29:10.866Z,5.40
2023-05-24T07:31:38.545Z,5.67
2023-05-24T07:34:06.227Z,5.43
2023-05-24T07:36:34.923Z,5.53
2023-05-24T07:39:05.519Z,5.57
2023-05-24T07:41:33.654Z,5.77
2023-05-24T07:44:01.395Z,5.47
2023-05-24T07:46:28.530Z,6.13
2023-05-24T07:48:58.634Z,6.10
2023-05-24T07:51:27.515Z,5.93
2023-05-24T07:53:54.891Z,5.53
2023-05-24T07:56:24.124Z,5.43
2023-05-24T07:58:51.996Z,6.60
2023-05-24T08:01:21.526Z,6.47
2023-05-24T08:03:48.952Z,5.83
2023-05-24T08:06:19.311Z,5.80
2023-05-24T08:08:47.755Z,6.17
2023-05-24T08:11:15.701Z,6.40
2023-05-24T08:13:44.552Z,6.13
2023-05-24T08:16:12.606Z,5.23
2023-05-24T08:18:40.578Z,5.60
2023-05-24T08:21:08.961Z,5.13
2023-05-24T08:23:36.419Z,6.70
2023-05-24T08:26:03.462Z,5.30
2023-05-24T08:28:34.030Z,5.13
2023-05-24T08:31:01.682Z,5.47
2023-05-24T08:33:29.875Z,5.20
2023-05-24T08:35:57.672Z,5.67
2023-05-24T08:38:25.143Z,6.00
2023-05-24T08:40:54.804Z,6.03
2023-05-24T08:43:21.973Z,6.03
2023-05-24T08:45:49.444Z,5.63
2023-05-24T08:48:18.264Z,5.33
2023-05-24T08:50:45.956Z,5.77
2023-05-24T08:53:13.972Z,5.80
2023-05-24T08:55:45.158Z,5.83
2023-05-24T08:58:12.482Z,4.70
2023-05-24T09:00:40.072Z,6.03
2023-05-24T09:03:10.069Z,5.57
2023-05-24T09:05:37.649Z,6.33
2023-05-24T09:08:04.790Z,6.37
2023-05-24T09:10:45.035Z,5.77
2023-05-24T09:13:21.217Z,5.83
2023-05-24T09:15:54.426Z,5.77
2023-05-24T09:18:22.342Z,5.80
2023-05-24T09:20:50.298Z,5.80
2023-05-24T09:23:17.807Z,5.97
2023-05-24T09:25:46.144Z,5.23
2023-05-24T09:28:17.821Z,6.80
2023-05-24T09:30:46.682Z,6.03
2023-05-24T09:33:14.250Z,6.00
2023-05-24T09:35:44.557Z,6.10
2023-05-24T09:38:19.514Z,5.80
2023-05-24T09:40:47.585Z,5.80
2023-05-24T09:43:15.084Z,6.07
2023-05-24T09:45:49.417Z,5.97
2023-05-24T09:48:18.027Z,6.67
2023-05-24T09:50:47.804Z,6.63
2023-05-24T09:53:19.452Z,6.60
2023-05-24T09:55:47.798Z,6.77
2023-05-24T09:58:16.107Z,7.13
2023-05-24T10:00:46.170Z,6.70
2023-05-24T10:03:15.227Z,6.37
2023-05-24T10:05:44.827Z,6.23
2023-05-24T10:08:12.970Z,5.50
2023-05-24T10:10:40.833Z,6.70
2023-05-24T10:13:08.230Z,6.40
2023-05-24T10:15:35.017Z,6.97
2023-05-24T10:18:02.672Z,6.63
2023-05-24T10:20:30.388Z,6.70
2023-05-24T10:23:02.230Z,6.60
2023-05-24T10:25:30.058Z,6.53
2023-05-24T10:28:10.598Z,7.33
2023-05-24T10:30:43.158Z,6.60
2023-05-24T10:33:13.453Z,6.60
2023-05-24T10:35:41.991Z,6.33
2023-05-24T10:38:10.376Z,6.90
2023-05-24T10:40:42.389Z,7.30
2023-05-24T10:43:13.001Z,7.13
2023-05-24T10:45:41.609Z,6.40
2023-05-24T10:48:15.924Z,6.27
2023-05-24T10:50:44.941Z,6.67
2023-05-24T10:53:16.406Z,6.73
2023-05-24T10:55:55.889Z,6.63
2023-05-24T10:58:59.792Z,7.13
2023-05-24T11:01:31.009Z,7.00
2023-05-24T11:04:11.324Z,7.40
2023-05-24T11:07:06.194Z,6.43
2023-05-24T11:09:33.613Z,6.90
2023-05-24T11:12:04.022Z,6.93
2023-05-24T11:14:32.178Z,6.70
2023-05-24T11:17:00.366Z,6.70
2023-05-24T11:19:37.835Z,6.73
2023-05-24T11:22:07.349Z,5.63
2023-05-24T11:24:35.282Z,6.67
2023-05-24T11:27:04.611Z,7.73
2023-05-24T11:29:33.925Z,6.50
2023-05-24T11:32:05.414Z,8.13
2023-05-24T11:34:33.919Z,6.40
2023-05-24T11:37:02.737Z,6.60
2023-05-24T11:39:34.673Z,6.80
2023-05-24T11:42:05.381Z,7.00
2023-05-24T11:44:33.538Z,7.50
2023-05-24T11:47:02.315Z,7.33
2023-05-24T11:49:30.282Z,6.30
2023-05-24T11:51:59.502Z,6.80
2023-05-24T11:54:34.850Z,6.67
2023-05-24T11:57:02.377Z,6.87
2023-05-24T11:59:30.698Z,6.70
2023-05-24T12:02:03.601Z,6.50
2023-05-24T12:04:34.948Z,7.07
2023-05-24T12:07:02.135Z,6.43
2023-05-24T12:09:30.312Z,7.20
2023-05-24T12:12:02.511Z,7.60
2023-05-24T12:14:31.468Z,7.20
2023-05-24T12:16:59.696Z,6.70
2023-05-24T12:19:37.347Z,7.57
2023-05-24T12:22:07.806Z,7.47
2023-05-24T12:24:35.851Z,7.13
2023-05-24T12:27:08.020Z,7.17
2023-05-24T12:29:40.978Z,7.67
2023-05-24T12:32:15.432Z,7.17
2023-05-24T12:38:34.317Z,6.93
2023-05-24T12:41:13.006Z,7.70
2023-05-24T12:43:44.822Z,7.10
2023-05-24T12:46:32.177Z,7.53
2023-05-24T12:49:25.833Z,7.10
2023-05-24T12:51:58.801Z,6.90
2023-05-24T12:54:26.932Z,7.40
2023-05-24T12:56:56.748Z,6.37
2023-05-24T12:59:23.988Z,6.90
2023-05-24T13:01:52.105Z,7.07
2023-05-24T13:04:22.025Z,7.43
2023-05-24T13:06:49.394Z,7.70
2023-05-24T13:09:21.502Z,7.00
2023-05-24T13:11:48.917Z,6.93
2023-05-24T13:14:17.150Z,6.53
2023-05-24T13:16:45.437Z,6.87
2023-05-24T13:19:12.966Z,6.80
2023-05-24T13:21:40.519Z,6.03
2023-05-24T13:24:08.568Z,7.80
2023-05-24T13:26:37.715Z,7.60
2023-05-24T13:31:38.789Z,7.03
2023-05-24T13:34:06.393Z,7.00
2023-05-24T13:36:33.629Z,6.90
2023-05-24T13:39:13.480Z,7.13
2023-05-24T13:41:42.545Z,6.70
2023-05-24T13:44:10.185Z,6.73
2023-05-24T13:46:40.334Z,7.87
2023-05-24T13:49:09.148Z,7.33
2023-05-24T13:51:36.636Z,6.17
2023-05-24T13:54:03.613Z,7.67
2023-05-24T14:03:17.468Z,6.93
2023-05-24T14:10:01.716Z,6.87
2023-05-24T14:12:32.049Z,7.43
2023-05-24T14:15:49.906Z,7.07
2023-05-24T14:18:16.981Z,6.67
2023-05-24T14:20:44.153Z,6.87
2023-05-24T14:23:12.211Z,7.03
2023-05-24T14:25:40.784Z,6.77
2023-05-24T14:28:11.437Z,6.90
2023-05-24T14:30:39.850Z,6.60
2023-05-24T14:33:08.610Z,7.57
2023-05-24T14:35:40.430Z,7.77
2023-05-24T14:38:09.741Z,7.50
2023-05-24T14:40:37.976Z,7.00
2023-05-24T14:43:06.222Z,7.40
2023-05-24T14:45:33.889Z,7.43
2023-05-24T14:48:01.507Z,8.03
2023-05-24T14:50:28.527Z,8.37
2023-05-24T14:52:55.900Z,7.93
2023-05-24T14:55:23.299Z,7.30
2023-05-24T14:57:51.439Z,7.07
2023-05-24T15:00:22.685Z,6.57
2023-05-24T15:02:51.004Z,7.87
2023-05-24T15:05:20.588Z,7.80
2023-05-24T15:07:47.458Z,8.30
2023-05-24T15:10:14.566Z,6.97
2023-05-24T15:12:45.374Z,6.70
2023-05-24T15:15:14.644Z,8.40
2023-05-24T15:18:09.989Z,7.60
2023-05-24T15:20:39.353Z,7.70
2023-05-24T15:23:06.382Z,7.80
2023-05-24T15:25:33.633Z,7.20
2023-05-24T15:28:00.734Z,7.90
2023-05-24T15:30:27.812Z,7.90
2023-05-24T15:32:54.901Z,8.10
2023-05-24T15:35:21.772Z,7.03
2023-05-24T15:37:48.598Z,7.30
2023-05-24T15:40:16.230Z,7.97
2023-05-24T15:42:42.957Z,8.77
2023-05-24T15:45:10.659Z,7.70
2023-05-24T15:47:40.146Z,7.53
2023-05-24T15:50:08.565Z,7.77
2023-05-24T15:52:36.814Z,6.90
2023-05-24T15:55:04.375Z,8.40
2023-05-24T15:57:31.740Z,7.90
2023-05-24T15:59:58.634Z,7.60
2023-05-24T16:02:25.841Z,7.80
2023-05-24T16:04:52.692Z,8.00
2023-05-24T16:07:20.292Z,7.70
2023-05-24T16:09:47.066Z,7.67
2023-05-24T16:12:17.013Z,8.53
2023-05-24T16:14:46.601Z,8.10
2023-05-24T16:17:13.728Z,8.20
2023-05-24T16:19:40.720Z,7.67
2023-05-24T16:22:07.934Z,8.30
2023-05-24T16:24:34.866Z,8.47
2023-05-24T16:27:02.129Z,8.87
2023-05-24T16:29:28.850Z,8.13
2023-05-24T16:31:55.637Z,9.57
2023-05-24T16:34:24.661Z,8.50
2023-05-24T16:36:51.515Z,7.83
2023-05-24T16:39:18.416Z,7.50
2023-05-24T16:41:45.328Z,7.97
2023-05-24T16:44:17.520Z,8.00
2023-05-24T16:46:45.547Z,8.10
2023-05-24T16:49:13.597Z,8.00
2023-05-24T16:51:40.614Z,7.67
2023-05-24T16:54:09.603Z,7.87
2023-05-24T16:56:38.367Z,7.00
2023-05-24T16:59:05.741Z,7.57
2023-05-24T17:01:32.661Z,7.73
2023-05-24T17:03:59.503Z,8.40
2023-05-24T17:06:26.235Z,7.87
2023-05-24T17:08:52.860Z,7.60
2023-05-24T17:11:19.945Z,8.00
2023-05-24T17:13:46.941Z,7.17
2023-05-24T17:16:14.193Z,8.20
2023-05-24T17:18:42.443Z,8.20
2023-05-24T17:21:09.904Z,7.47
2023-05-24T17:23:37.519Z,7.67
2023-05-24T17:26:04.677Z,8.00
2023-05-24T17:28:31.503Z,7.90
2023-05-24T17:31:00.422Z,7.73
2023-05-24T17:33:29.334Z,7.80
2023-05-24T17:35:57.039Z,8.07
2023-05-24T17:38:25.189Z,8.47
2023-05-24T17:40:59.885Z,7.50
2023-05-24T17:43:32.687Z,6.77
2023-05-24T17:46:07.035Z,7.47
2023-05-24T17:48:38.188Z,6.90
2023-05-24T17:51:07.028Z,9.27
2023-05-24T17:53:35.814Z,7.30
2023-05-24T17:56:04.661Z,7.83
2023-05-24T17:58:32.967Z,6.87
2023-05-24T18:01:00.266Z,6.87
2023-05-24T18:03:27.326Z,6.70
2023-05-24T18:05:55.196Z,6.73
2023-05-24T18:08:23.208Z,6.83
2023-05-24T18:10:50.168Z,6.67
2023-05-24T18:13:17.679Z,6.70
2023-05-24T18:15:44.982Z,6.90
2023-05-24T18:18:12.130Z,7.00
2023-05-24T18:20:39.062Z,7.50
2023-05-24T18:23:06.009Z,7.40
2023-05-24T18:25:32.669Z,7.20
2023-05-24T18:27:59.389Z,6.67
2023-05-24T18:30:26.056Z,6.63
2023-05-24T18:33:04.971Z,7.20
2023-05-24T18:35:39.235Z,7.30
2023-05-24T18:38:05.973Z,6.80
2023-05-24T18:40:33.279Z,7.60
2023-05-24T18:43:00.274Z,7.20
2023-05-24T18:45:27.444Z,7.07
2023-05-24T18:47:54.329Z,6.93
2023-05-24T18:50:23.507Z,8.00
2023-05-24T18:52:50.500Z,7.37
2023-05-24T18:55:17.246Z,7.40
2023-05-24T18:57:44.017Z,7.20
2023-05-24T19:00:11.734Z,8.10
2023-05-24T19:02:39.567Z,7.30
2023-05-24T19:05:08.627Z,8.07
2023-05-24T19:07:36.041Z,7.10
2023-05-24T19:10:03.269Z,7.00
2023-05-24T19:12:30.336Z,7.80
2023-05-24T19:14:57.172Z,7.40
2023-05-24T19:17:25.023Z,7.47
2023-05-24T19:19:52.113Z,6.90
2023-05-24T19:22:19.052Z,6.90
2023-05-24T19:24:45.747Z,6.90
2023-05-24T19:27:12.383Z,6.50
2023-05-24T19:29:39.956Z,7.90
2023-05-24T19:32:13.741Z,7.20
2023-05-24T19:34:42.336Z,7.73
2023-05-24T19:37:09.682Z,7.57
2023-05-24T19:39:37.229Z,6.87
2023-05-24T19:42:04.435Z,7.27
2023-05-24T19:44:31.172Z,7.00
2023-05-24T19:46:57.897Z,7.50
2023-05-24T19:49:24.508Z,7.73
2023-05-24T19:51:52.262Z,7.03
2023-05-24T19:54:18.995Z,8.23
2023-05-24T19:56:49.755Z,8.17
2023-05-24T19:59:19.527Z,8.17
2023-05-24T20:01:46.217Z,7.47
2023-05-24T20:04:13.135Z,8.30
2023-05-24T20:06:40.630Z,7.20
2023-05-24T20:09:07.292Z,8.73
2023-05-24T20:11:34.721Z,8.43
2023-05-24T20:14:01.835Z,9.07
2023-05-24T20:16:29.787Z,8.00
2023-05-24T20:18:56.537Z,8.17
2023-05-24T20:21:23.216Z,9.03
2023-05-24T20:23:55.213Z,8.23
2023-05-24T20:26:23.327Z,7.70
2023-05-24T20:28:52.244Z,7.73
2023-05-24T20:31:19.086Z,8.73
2023-05-24T20:33:46.066Z,8.73
2023-05-24T20:36:14.915Z,8.00
2023-05-24T20:38:41.683Z,7.60
2023-05-24T20:41:08.435Z,8.27
2023-05-24T20:43:35.228Z,7.87
2023-05-24T20:46:02.109Z,8.60
2023-05-24T20:48:29.091Z,8.20
2023-05-24T20:50:55.880Z,7.83
2023-05-24T20:53:22.589Z,8.20
2023-05-24T20:55:49.320Z,8.20
2023-05-24T20:58:17.295Z,7.47
2023-05-24T21:00:43.966Z,8.40
2023-05-24T21:03:10.887Z,8.33
2023-05-24T21:05:39.720Z,7.37
2023-05-24T21:08:06.565Z,8.23
2023-05-24T21:10:33.355Z,8.20
2023-05-24T21:13:00.187Z,8.67
2023-05-24T21:15:27.020Z,9.50
2023-05-24T21:17:53.673Z,8.60
2023-05-24T21:20:20.641Z,9.03
2023-05-24T21:22:52.060Z,7.70
2023-05-24T21:25:18.657Z,8.73
2023-05-24T21:27:45.630Z,9.00
2023-05-24T21:30:12.784Z,9.07
2023-05-24T21:32:39.640Z,9.03
2023-05-24T21:35:07.053Z,9.53
2023-05-24T21:37:36.102Z,8.60
2023-05-24T21:40:03.040Z,8.57
2023-05-24T21:42:30.603Z,8.33
2023-05-24T21:44:58.019Z,8.80
2023-05-24T21:47:24.682Z,8.83
2023-05-24T21:49:52.030Z,8.70
2023-05-24T21:52:22.033Z,9.43
2023-05-24T21:54:48.898Z,8.70
2023-05-24T21:57:16.040Z,9.10
2023-05-24T21:59:42.804Z,9.30
2023-05-24T22:02:09.682Z,9.67
2023-05-24T22:04:36.346Z,9.30
2023-05-24T22:07:03.035Z,9.57
2023-05-24T22:09:29.725Z,10.13
2023-05-24T22:11:56.410Z,8.87
2023-05-24T22:14:23.059Z,9.50
2023-05-24T22:16:50.809Z,9.37
2023-05-24T22:19:28.570Z,10.27
2023-05-24T22:22:05.141Z,9.77
2023-05-24T22:24:31.948Z,9.40
2023-05-24T22:27:01.086Z,9.30
2023-05-24T22:29:28.014Z,9.60
2023-05-24T22:31:54.767Z,9.03
2023-05-24T22:34:30.824Z,9.47
2023-05-24T22:36:58.806Z,9.60
2023-05-24T22:39:25.445Z,9.60
2023-05-24T22:41:52.981Z,10.13
2023-05-24T22:44:20.318Z,9.70
2023-05-24T22:46:53.097Z,10.70
2023-05-24T22:49:20.278Z,10.13
2023-05-24T22:51:48.572Z,10.40
2023-05-24T22:54:15.796Z,10.57
2023-05-24T22:56:44.202Z,10.20
2023-05-24T22:59:11.801Z,10.63
2023-05-24T23:01:39.184Z,10.60
2023-05-24T23:04:19.506Z,10.90
2023-05-24T23:06:47.421Z,9.63
2023-05-24T23:09:14.125Z,9.70
2023-05-24T23:11:43.053Z,10.90
2023-05-24T23:14:11.130Z,11.03
2023-05-24T23:16:45.511Z,11.37
2023-05-24T23:19:13.819Z,10.60
2023-05-24T23:21:42.222Z,11.03
2023-05-24T23:24:17.210Z,10.40
2023-05-24T23:26:44.078Z,11.23
2023-05-24T23:29:11.831Z,11.50
2023-05-24T23:31:38.565Z,9.70
2023-05-24T23:34:05.773Z,9.40
2023-05-24T23:36:32.476Z,9.90
2023-05-24T23:38:59.147Z,10.33
2023-05-24T23:41:26.585Z,10.50
2023-05-24T23:43:53.911Z,11.00
2023-05-24T23:46:20.874Z,11.13
2023-05-24T23:48:48.696Z,9.57
2023-05-24T23:51:15.867Z,10.37
2023-05-24T23:53:42.490Z,11.03
2023-05-24T23:56:09.079Z,10.23
2023-05-24T23:58:39.645Z,10.90
